sensor_id;sensor_type;location;lat;lon;timestamp;temperature;humidity
67050;DHT22;53955;52.442;13.284;2023-12-28T00:00:50;7.70;79.70
67050;DHT22;53955;52.442;13.284;2023-12-28T00:03:16;7.60;79.60
67050;DHT22;53955;52.442;13.284;2023-12-28T00:05:43;7.60;79.50
67050;DHT22;53955;52.442;13.284;2023-12-28T00:08:10;7.50;79.50
67050;DHT22;53955;52.442;13.284;2023-12-28T00:10:36;7.50;79.50
67050;DHT22;53955;52.442;13.284;2023-12-28T00:13:03;7.70;79.40
67050;DHT22;53955;52.442;13.284;2023-12-28T00:15:31;7.70;79.90
67050;DHT22;53955;52.442;13.284;2023-12-28T00:17:57;7.70;80.00
67050;DHT22;53955;52.442;13.284;2023-12-28T00:20:24;7.70;79.70
67050;DHT22;53955;52.442;13.284;2023-12-28T00:22:50;7.80;79.20
67050;DHT22;53955;52.442;13.284;2023-12-28T00:25:17;7.70;79.60
67050;DHT22;53955;52.442;13.284;2023-12-28T00:27:43;7.70;79.10
67050;DHT22;53955;52.442;13.284;2023-12-28T00:30:11;7.70;79.10
67050;DHT22;53955;52.442;13.284;2023-12-28T00:32:40;7.70;79.00
67050;DHT22;53955;52.442;13.284;2023-12-28T00:35:08;7.60;79.20
67050;DHT22;53955;52.442;13.284;2023-12-28T00:37:35;7.60;79.00
67050;DHT22;53955;52.442;13.284;2023-12-28T00:40:02;7.60;78.90
67050;DHT22;53955;52.442;13.284;2023-12-28T00:42:28;7.70;79.70
67050;DHT22;53955;52.442;13.284;2023-12-28T00:44:55;7.60;79.50
67050;DHT22;53955;52.442;13.284;2023-12-28T00:47:21;7.40;79.60
67050;DHT22;53955;52.442;13.284;2023-12-28T00:49:49;7.70;78.80
67050;DHT22;53955;52.442;13.284;2023-12-28T00:52:16;7.60;79.20
67050;DHT22;53955;52.442;13.284;2023-12-28T00:54:42;7.80;79.40
67050;DHT22;53955;52.442;13.284;2023-12-28T00:57:09;7.70;79.20
67050;DHT22;53955;52.442;13.284;2023-12-28T00:59:36;7.70;78.90
67050;DHT22;53955;52.442;13.284;2023-12-28T01:02:02;7.70;79.20
67050;DHT22;53955;52.442;13.284;2023-12-28T01:04:29;7.70;79.10
67050;DHT22;53955;52.442;13.284;2023-12-28T01:06:57;7.70;79.00
67050;DHT22;53955;52.442;13.284;2023-12-28T01:09:23;7.70;79.40
67050;DHT22;53955;52.442;13.284;2023-12-28T01:11:50;7.50;79.70
67050;DHT22;53955;52.442;13.284;2023-12-28T01:14:16;7.80;78.90
67050;DHT22;53955;52.442;13.284;2023-12-28T01:16:42;7.70;78.40
67050;DHT22;53955;52.442;13.284;2023-12-28T01:19:09;8.00;77.80
67050;DHT22;53955;52.442;13.284;2023-12-28T01:21:36;7.90;77.60
67050;DHT22;53955;52.442;13.284;2023-12-28T01:24:04;8.00;77.40
67050;DHT22;53955;52.442;13.284;2023-12-28T01:26:30;8.00;77.50
67050;DHT22;53955;52.442;13.284;2023-12-28T01:28:57;8.00;77.30
67050;DHT22;53955;52.442;13.284;2023-12-28T01:31:27;8.00;77.40
67050;DHT22;53955;52.442;13.284;2023-12-28T01:33:53;8.00;76.80
67050;DHT22;53955;52.442;13.284;2023-12-28T01:36:20;8.10;76.40
67050;DHT22;53955;52.442;13.284;2023-12-28T01:38:47;8.20;76.50
67050;DHT22;53955;52.442;13.284;2023-12-28T01:41:16;8.10;75.80
67050;DHT22;53955;52.442;13.284;2023-12-28T01:43:42;8.10;75.60
67050;DHT22;53955;52.442;13.284;2023-12-28T01:46:13;8.20;75.80
67050;DHT22;53955;52.442;13.284;2023-12-28T01:48:42;8.10;75.20
67050;DHT22;53955;52.442;13.284;2023-12-28T01:51:10;8.20;75.50
67050;DHT22;53955;52.442;13.284;2023-12-28T01:53:37;8.30;75.20
67050;DHT22;53955;52.442;13.284;2023-12-28T01:56:04;8.20;75.00
67050;DHT22;53955;52.442;13.284;2023-12-28T01:58:33;8.20;74.90
67050;DHT22;53955;52.442;13.284;2023-12-28T02:01:01;8.30;74.40
67050;DHT22;53955;52.442;13.284;2023-12-28T02:03:28;8.40;74.20
67050;DHT22;53955;52.442;13.284;2023-12-28T02:05:55;8.20;74.50
67050;DHT22;53955;52.442;13.284;2023-12-28T02:08:21;8.20;74.50
67050;DHT22;53955;52.442;13.284;2023-12-28T02:10:47;8.20;73.80
67050;DHT22;53955;52.442;13.284;2023-12-28T02:13:14;8.30;73.20
67050;DHT22;53955;52.442;13.284;2023-12-28T02:15:42;8.30;73.70
67050;DHT22;53955;52.442;13.284;2023-12-28T02:18:12;8.20;73.70
67050;DHT22;53955;52.442;13.284;2023-12-28T02:20:39;8.30;72.20
67050;DHT22;53955;52.442;13.284;2023-12-28T02:23:06;8.30;71.60
67050;DHT22;53955;52.442;13.284;2023-12-28T02:25:36;8.40;71.90
67050;DHT22;53955;52.442;13.284;2023-12-28T02:28:03;8.40;71.40
67050;DHT22;53955;52.442;13.284;2023-12-28T02:30:30;8.50;70.30
67050;DHT22;53955;52.442;13.284;2023-12-28T02:33:05;8.40;69.90
67050;DHT22;53955;52.442;13.284;2023-12-28T02:35:39;8.60;69.30
67050;DHT22;53955;52.442;13.284;2023-12-28T02:38:09;8.60;69.30
67050;DHT22;53955;52.442;13.284;2023-12-28T02:40:38;8.80;68.20
67050;DHT22;53955;52.442;13.284;2023-12-28T02:43:05;8.70;66.20
67050;DHT22;53955;52.442;13.284;2023-12-28T02:45:32;8.90;66.30
67050;DHT22;53955;52.442;13.284;2023-12-28T02:47:59;8.90;63.90
67050;DHT22;53955;52.442;13.284;2023-12-28T02:50:25;9.00;64.20
67050;DHT22;53955;52.442;13.284;2023-12-28T02:52:52;9.00;62.60
67050;DHT22;53955;52.442;13.284;2023-12-28T02:55:18;9.10;62.50
67050;DHT22;53955;52.442;13.284;2023-12-28T02:57:46;9.20;61.80
67050;DHT22;53955;52.442;13.284;2023-12-28T03:00:13;9.30;61.70
67050;DHT22;53955;52.442;13.284;2023-12-28T03:02:40;9.30;60.30
67050;DHT22;53955;52.442;13.284;2023-12-28T03:05:07;9.40;60.20
67050;DHT22;53955;52.442;13.284;2023-12-28T03:07:34;9.40;60.30
67050;DHT22;53955;52.442;13.284;2023-12-28T03:10:02;9.40;59.70
67050;DHT22;53955;52.442;13.284;2023-12-28T03:12:30;9.50;59.80
67050;DHT22;53955;52.442;13.284;2023-12-28T03:14:58;9.50;59.40
67050;DHT22;53955;52.442;13.284;2023-12-28T03:17:24;9.50;59.60
67050;DHT22;53955;52.442;13.284;2023-12-28T03:19:51;9.60;58.90
67050;DHT22;53955;52.442;13.284;2023-12-28T03:22:18;9.60;58.90
67050;DHT22;53955;52.442;13.284;2023-12-28T03:24:46;9.70;58.80
67050;DHT22;53955;52.442;13.284;2023-12-28T03:27:12;9.70;58.70
67050;DHT22;53955;52.442;13.284;2023-12-28T03:29:40;9.70;58.80
67050;DHT22;53955;52.442;13.284;2023-12-28T03:32:09;9.70;58.00
67050;DHT22;53955;52.442;13.284;2023-12-28T03:34:35;9.70;57.50
67050;DHT22;53955;52.442;13.284;2023-12-28T03:37:02;9.80;57.70
67050;DHT22;53955;52.442;13.284;2023-12-28T03:39:29;9.80;57.20
67050;DHT22;53955;52.442;13.284;2023-12-28T03:41:55;9.90;57.90
67050;DHT22;53955;52.442;13.284;2023-12-28T03:44:22;9.90;59.00
67050;DHT22;53955;52.442;13.284;2023-12-28T03:46:49;9.90;60.00
67050;DHT22;53955;52.442;13.284;2023-12-28T03:49:17;9.90;60.40
67050;DHT22;53955;52.442;13.284;2023-12-28T03:51:44;9.90;60.40
67050;DHT22;53955;52.442;13.284;2023-12-28T03:54:11;10.00;60.50
67050;DHT22;53955;52.442;13.284;2023-12-28T03:56:38;10.00;62.20
67050;DHT22;53955;52.442;13.284;2023-12-28T03:59:06;9.90;61.30
67050;DHT22;53955;52.442;13.284;2023-12-28T04:01:32;9.90;62.00
67050;DHT22;53955;52.442;13.284;2023-12-28T04:03:59;9.90;61.80
67050;DHT22;53955;52.442;13.284;2023-12-28T04:06:27;9.80;61.00
67050;DHT22;53955;52.442;13.284;2023-12-28T04:08:53;9.90;60.60
67050;DHT22;53955;52.442;13.284;2023-12-28T04:11:20;10.00;60.90
67050;DHT22;53955;52.442;13.284;2023-12-28T04:13:47;9.90;60.60
67050;DHT22;53955;52.442;13.284;2023-12-28T04:16:13;10.00;60.70
67050;DHT22;53955;52.442;13.284;2023-12-28T04:18:40;9.90;59.90
67050;DHT22;53955;52.442;13.284;2023-12-28T04:21:08;10.00;59.70
67050;DHT22;53955;52.442;13.284;2023-12-28T04:23:36;10.10;59.70
67050;DHT22;53955;52.442;13.284;2023-12-28T04:26:03;10.00;59.30
67050;DHT22;53955;52.442;13.284;2023-12-28T04:28:29;10.00;59.40
67050;DHT22;53955;52.442;13.284;2023-12-28T04:30:56;10.10;58.90
67050;DHT22;53955;52.442;13.284;2023-12-28T04:33:22;10.00;59.30
67050;DHT22;53955;52.442;13.284;2023-12-28T04:35:49;10.20;71.80
67050;DHT22;53955;52.442;13.284;2023-12-28T04:38:15;10.40;61.00
67050;DHT22;53955;52.442;13.284;2023-12-28T04:40:43;10.50;58.80
67050;DHT22;53955;52.442;13.284;2023-12-28T04:43:10;10.40;59.10
67050;DHT22;53955;52.442;13.284;2023-12-28T04:45:36;10.30;58.20
67050;DHT22;53955;52.442;13.284;2023-12-28T04:48:04;10.40;58.30
67050;DHT22;53955;52.442;13.284;2023-12-28T04:50:31;10.40;58.40
67050;DHT22;53955;52.442;13.284;2023-12-28T04:52:57;10.40;58.50
67050;DHT22;53955;52.442;13.284;2023-12-28T04:55:24;10.40;58.20
67050;DHT22;53955;52.442;13.284;2023-12-28T04:57:52;10.30;58.50
67050;DHT22;53955;52.442;13.284;2023-12-28T05:00:18;10.30;58.50
67050;DHT22;53955;52.442;13.284;2023-12-28T05:02:45;10.40;57.90
67050;DHT22;53955;52.442;13.284;2023-12-28T05:05:12;10.30;58.80
67050;DHT22;53955;52.442;13.284;2023-12-28T05:07:38;10.40;58.60
67050;DHT22;53955;52.442;13.284;2023-12-28T05:10:06;10.40;58.30
67050;DHT22;53955;52.442;13.284;2023-12-28T05:12:33;10.40;57.40
67050;DHT22;53955;52.442;13.284;2023-12-28T05:15:00;10.40;59.30
67050;DHT22;53955;52.442;13.284;2023-12-28T05:17:27;10.30;60.20
67050;DHT22;53955;52.442;13.284;2023-12-28T05:19:53;10.50;59.40
67050;DHT22;53955;52.442;13.284;2023-12-28T05:22:21;10.40;59.80
67050;DHT22;53955;52.442;13.284;2023-12-28T05:24:48;10.40;59.70
67050;DHT22;53955;52.442;13.284;2023-12-28T05:27:14;10.40;59.60
67050;DHT22;53955;52.442;13.284;2023-12-28T05:29:41;10.50;59.70
67050;DHT22;53955;52.442;13.284;2023-12-28T05:32:09;10.50;59.40
67050;DHT22;53955;52.442;13.284;2023-12-28T05:34:35;10.50;60.20
67050;DHT22;53955;52.442;13.284;2023-12-28T05:37:02;10.50;60.00
67050;DHT22;53955;52.442;13.284;2023-12-28T05:39:29;10.50;60.40
67050;DHT22;53955;52.442;13.284;2023-12-28T05:41:55;10.50;60.70
67050;DHT22;53955;52.442;13.284;2023-12-28T05:44:22;10.50;60.60
67050;DHT22;53955;52.442;13.284;2023-12-28T05:46:48;10.50;61.50
67050;DHT22;53955;52.442;13.284;2023-12-28T05:49:16;10.50;61.10
67050;DHT22;53955;52.442;13.284;2023-12-28T05:51:43;10.60;62.20
67050;DHT22;53955;52.442;13.284;2023-12-28T05:54:09;10.50;62.60
67050;DHT22;53955;52.442;13.284;2023-12-28T05:56:36;10.60;62.60
67050;DHT22;53955;52.442;13.284;2023-12-28T05:59:03;10.60;63.20
67050;DHT22;53955;52.442;13.284;2023-12-28T06:01:29;10.50;63.10
67050;DHT22;53955;52.442;13.284;2023-12-28T06:03:56;10.60;63.40
67050;DHT22;53955;52.442;13.284;2023-12-28T06:06:24;10.60;63.80
67050;DHT22;53955;52.442;13.284;2023-12-28T06:08:50;10.60;64.10
67050;DHT22;53955;52.442;13.284;2023-12-28T06:11:17;10.60;64.60
67050;DHT22;53955;52.442;13.284;2023-12-28T06:13:44;10.60;64.30
67050;DHT22;53955;52.442;13.284;2023-12-28T06:16:10;10.60;64.70
67050;DHT22;53955;52.442;13.284;2023-12-28T06:18:37;10.70;64.10
67050;DHT22;53955;52.442;13.284;2023-12-28T06:21:03;10.70;64.90
67050;DHT22;53955;52.442;13.284;2023-12-28T06:23:33;10.60;65.40
67050;DHT22;53955;52.442;13.284;2023-12-28T06:26:04;10.60;65.10
67050;DHT22;53955;52.442;13.284;2023-12-28T06:28:31;10.60;64.90
67050;DHT22;53955;52.442;13.284;2023-12-28T06:30:58;10.60;64.50
67050;DHT22;53955;52.442;13.284;2023-12-28T06:33:26;10.70;65.30
67050;DHT22;53955;52.442;13.284;2023-12-28T06:35:53;10.60;66.20
67050;DHT22;53955;52.442;13.284;2023-12-28T06:38:20;10.60;66.50
67050;DHT22;53955;52.442;13.284;2023-12-28T06:40:48;10.70;66.40
67050;DHT22;53955;52.442;13.284;2023-12-28T06:43:14;10.60;67.60
67050;DHT22;53955;52.442;13.284;2023-12-28T06:45:41;10.70;67.00
67050;DHT22;53955;52.442;13.284;2023-12-28T06:48:08;10.60;66.20
67050;DHT22;53955;52.442;13.284;2023-12-28T06:50:34;10.80;67.30
67050;DHT22;53955;52.442;13.284;2023-12-28T06:53:01;10.70;68.00
67050;DHT22;53955;52.442;13.284;2023-12-28T06:55:27;10.70;67.80
67050;DHT22;53955;52.442;13.284;2023-12-28T06:57:55;10.60;67.70
67050;DHT22;53955;52.442;13.284;2023-12-28T07:00:22;10.60;68.40
67050;DHT22;53955;52.442;13.284;2023-12-28T07:02:48;10.60;68.40
67050;DHT22;53955;52.442;13.284;2023-12-28T07:05:15;10.60;68.10
67050;DHT22;53955;52.442;13.284;2023-12-28T07:07:41;10.60;68.90
67050;DHT22;53955;52.442;13.284;2023-12-28T07:10:08;10.70;69.00
67050;DHT22;53955;52.442;13.284;2023-12-28T07:12:35;10.70;68.80
67050;DHT22;53955;52.442;13.284;2023-12-28T07:15:03;10.60;68.50
67050;DHT22;53955;52.442;13.284;2023-12-28T07:17:30;10.60;69.40
67050;DHT22;53955;52.442;13.284;2023-12-28T07:19:57;10.50;69.80
67050;DHT22;53955;52.442;13.284;2023-12-28T07:22:23;10.60;68.90
67050;DHT22;53955;52.442;13.284;2023-12-28T07:24:50;10.60;69.20
67050;DHT22;53955;52.442;13.284;2023-12-28T07:27:16;10.50;69.20
67050;DHT22;53955;52.442;13.284;2023-12-28T07:29:43;10.60;69.60
67050;DHT22;53955;52.442;13.284;2023-12-28T07:32:11;10.60;70.10
67050;DHT22;53955;52.442;13.284;2023-12-28T07:34:37;10.50;70.20
67050;DHT22;53955;52.442;13.284;2023-12-28T07:37:04;10.50;70.50
67050;DHT22;53955;52.442;13.284;2023-12-28T07:39:30;10.60;70.60
67050;DHT22;53955;52.442;13.284;2023-12-28T07:41:57;10.70;70.50
67050;DHT22;53955;52.442;13.284;2023-12-28T07:44:23;10.60;70.20
67050;DHT22;53955;52.442;13.284;2023-12-28T07:46:50;10.60;71.00
67050;DHT22;53955;52.442;13.284;2023-12-28T07:49:18;10.60;70.50
67050;DHT22;53955;52.442;13.284;2023-12-28T07:51:44;10.60;71.00
67050;DHT22;53955;52.442;13.284;2023-12-28T07:54:11;10.60;71.00
67050;DHT22;53955;52.442;13.284;2023-12-28T07:56:38;10.70;70.90
67050;DHT22;53955;52.442;13.284;2023-12-28T07:59:05;10.60;71.40
67050;DHT22;53955;52.442;13.284;2023-12-28T08:01:34;10.60;71.00
67050;DHT22;53955;52.442;13.284;2023-12-28T08:04:01;10.70;71.80
67050;DHT22;53955;52.442;13.284;2023-12-28T08:06:29;10.70;71.30
67050;DHT22;53955;52.442;13.284;2023-12-28T08:08:57;10.80;70.70
67050;DHT22;53955;52.442;13.284;2023-12-28T08:11:26;10.70;71.00
67050;DHT22;53955;52.442;13.284;2023-12-28T08:13:52;10.80;71.10
67050;DHT22;53955;52.442;13.284;2023-12-28T08:16:19;10.60;71.00
67050;DHT22;53955;52.442;13.284;2023-12-28T08:18:46;10.70;70.70
67050;DHT22;53955;52.442;13.284;2023-12-28T08:21:12;10.70;70.60
67050;DHT22;53955;52.442;13.284;2023-12-28T08:23:41;10.80;70.80
67050;DHT22;53955;52.442;13.284;2023-12-28T08:26:07;10.80;70.60
67050;DHT22;53955;52.442;13.284;2023-12-28T08:28:34;10.80;70.20
67050;DHT22;53955;52.442;13.284;2023-12-28T08:31:00;10.80;70.20
67050;DHT22;53955;52.442;13.284;2023-12-28T08:33:26;10.90;70.10
67050;DHT22;53955;52.442;13.284;2023-12-28T08:35:52;10.90;69.70
67050;DHT22;53955;52.442;13.284;2023-12-28T08:38:19;10.90;69.70
67050;DHT22;53955;52.442;13.284;2023-12-28T08:40:47;10.90;69.50
67050;DHT22;53955;52.442;13.284;2023-12-28T08:43:14;10.90;69.60
67050;DHT22;53955;52.442;13.284;2023-12-28T08:45:40;10.90;69.40
67050;DHT22;53955;52.442;13.284;2023-12-28T08:48:07;10.90;69.40
67050;DHT22;53955;52.442;13.284;2023-12-28T08:50:33;10.90;69.40
67050;DHT22;53955;52.442;13.284;2023-12-28T08:53:00;10.90;69.20
67050;DHT22;53955;52.442;13.284;2023-12-28T08:55:26;10.80;69.30
67050;DHT22;53955;52.442;13.284;2023-12-28T08:57:54;10.90;69.40
67050;DHT22;53955;52.442;13.284;2023-12-28T09:00:21;11.00;68.40
67050;DHT22;53955;52.442;13.284;2023-12-28T09:02:47;11.00;69.00
67050;DHT22;53955;52.442;13.284;2023-12-28T09:05:14;11.00;68.90
67050;DHT22;53955;52.442;13.284;2023-12-28T09:07:40;11.00;69.60
67050;DHT22;53955;52.442;13.284;2023-12-28T09:10:09;11.00;69.40
67050;DHT22;53955;52.442;13.284;2023-12-28T09:12:36;11.00;69.00
67050;DHT22;53955;52.442;13.284;2023-12-28T09:15:05;11.10;68.50
67050;DHT22;53955;52.442;13.284;2023-12-28T09:17:32;11.10;69.10
67050;DHT22;53955;52.442;13.284;2023-12-28T09:19:59;11.10;68.40
67050;DHT22;53955;52.442;13.284;2023-12-28T09:22:26;11.10;68.00
67050;DHT22;53955;52.442;13.284;2023-12-28T09:24:53;11.10;68.10
67050;DHT22;53955;52.442;13.284;2023-12-28T09:27:19;11.10;68.30
67050;DHT22;53955;52.442;13.284;2023-12-28T09:29:46;11.10;68.30
67050;DHT22;53955;52.442;13.284;2023-12-28T09:32:14;11.00;69.00
67050;DHT22;53955;52.442;13.284;2023-12-28T09:34:42;11.00;68.70
67050;DHT22;53955;52.442;13.284;2023-12-28T09:37:08;11.00;68.40
67050;DHT22;53955;52.442;13.284;2023-12-28T09:39:35;10.90;68.30
67050;DHT22;53955;52.442;13.284;2023-12-28T09:42:05;11.00;69.00
67050;DHT22;53955;52.442;13.284;2023-12-28T09:44:34;11.00;69.10
67050;DHT22;53955;52.442;13.284;2023-12-28T09:47:03;10.90;69.30
67050;DHT22;53955;52.442;13.284;2023-12-28T09:49:33;11.00;69.30
67050;DHT22;53955;52.442;13.284;2023-12-28T09:52:01;11.00;69.10
67050;DHT22;53955;52.442;13.284;2023-12-28T09:54:28;11.00;69.40
67050;DHT22;53955;52.442;13.284;2023-12-28T09:56:54;11.00;69.50
67050;DHT22;53955;52.442;13.284;2023-12-28T09:59:22;11.10;69.90
67050;DHT22;53955;52.442;13.284;2023-12-28T10:01:49;11.10;69.10
67050;DHT22;53955;52.442;13.284;2023-12-28T10:04:16;11.10;69.80
67050;DHT22;53955;52.442;13.284;2023-12-28T10:06:44;11.00;69.80
67050;DHT22;53955;52.442;13.284;2023-12-28T10:09:10;11.00;69.60
67050;DHT22;53955;52.442;13.284;2023-12-28T10:11:37;11.00;69.90
67050;DHT22;53955;52.442;13.284;2023-12-28T10:14:04;11.00;70.20
67050;DHT22;53955;52.442;13.284;2023-12-28T10:16:32;11.00;70.00
67050;DHT22;53955;52.442;13.284;2023-12-28T10:18:59;11.20;70.10
67050;DHT22;53955;52.442;13.284;2023-12-28T10:21:25;11.10;69.90
67050;DHT22;53955;52.442;13.284;2023-12-28T10:23:53;11.10;70.30
67050;DHT22;53955;52.442;13.284;2023-12-28T10:26:20;11.10;70.10
67050;DHT22;53955;52.442;13.284;2023-12-28T10:28:47;11.30;70.00
67050;DHT22;53955;52.442;13.284;2023-12-28T10:31:14;11.20;69.60
67050;DHT22;53955;52.442;13.284;2023-12-28T10:33:42;11.40;69.90
67050;DHT22;53955;52.442;13.284;2023-12-28T10:36:11;11.50;69.70
67050;DHT22;53955;52.442;13.284;2023-12-28T10:38:40;11.60;69.10
67050;DHT22;53955;52.442;13.284;2023-12-28T10:41:10;11.60;69.80
67050;DHT22;53955;52.442;13.284;2023-12-28T10:43:43;11.80;69.40
67050;DHT22;53955;52.442;13.284;2023-12-28T10:46:14;11.80;69.20
67050;DHT22;53955;52.442;13.284;2023-12-28T10:48:46;11.70;69.10
67050;DHT22;53955;52.442;13.284;2023-12-28T10:51:13;11.70;69.60
67050;DHT22;53955;52.442;13.284;2023-12-28T10:53:47;11.70;69.10
67050;DHT22;53955;52.442;13.284;2023-12-28T10:56:24;11.90;68.80
67050;DHT22;53955;52.442;13.284;2023-12-28T10:58:58;11.90;69.10
67050;DHT22;53955;52.442;13.284;2023-12-28T11:01:32;11.90;69.30
67050;DHT22;53955;52.442;13.284;2023-12-28T11:04:06;12.00;68.50
67050;DHT22;53955;52.442;13.284;2023-12-28T11:06:35;12.00;69.00
67050;DHT22;53955;52.442;13.284;2023-12-28T11:09:04;11.90;68.10
67050;DHT22;53955;52.442;13.284;2023-12-28T11:11:34;12.00;69.00
67050;DHT22;53955;52.442;13.284;2023-12-28T11:14:02;12.10;67.80
67050;DHT22;53955;52.442;13.284;2023-12-28T11:16:30;12.20;66.80
67050;DHT22;53955;52.442;13.284;2023-12-28T11:18:59;12.20;67.50
67050;DHT22;53955;52.442;13.284;2023-12-28T11:21:26;12.30;66.80
67050;DHT22;53955;52.442;13.284;2023-12-28T11:23:53;12.40;66.60
67050;DHT22;53955;52.442;13.284;2023-12-28T11:26:21;12.50;66.60
67050;DHT22;53955;52.442;13.284;2023-12-28T11:28:49;12.50;65.80
67050;DHT22;53955;52.442;13.284;2023-12-28T11:31:17;12.40;65.30
67050;DHT22;53955;52.442;13.284;2023-12-28T11:33:45;12.60;65.20
67050;DHT22;53955;52.442;13.284;2023-12-28T11:36:19;12.50;64.70
67050;DHT22;53955;52.442;13.284;2023-12-28T11:38:50;12.50;65.10
67050;DHT22;53955;52.442;13.284;2023-12-28T11:41:19;12.40;64.80
67050;DHT22;53955;52.442;13.284;2023-12-28T11:43:53;12.50;64.30
67050;DHT22;53955;52.442;13.284;2023-12-28T11:46:20;12.40;64.40
67050;DHT22;53955;52.442;13.284;2023-12-28T11:48:47;12.50;64.20
67050;DHT22;53955;52.442;13.284;2023-12-28T11:51:14;12.60;64.00
67050;DHT22;53955;52.442;13.284;2023-12-28T11:53:41;12.50;64.00
67050;DHT22;53955;52.442;13.284;2023-12-28T11:56:09;12.40;63.80
67050;DHT22;53955;52.442;13.284;2023-12-28T11:58:36;12.40;64.60
67050;DHT22;53955;52.442;13.284;2023-12-28T12:01:04;12.40;65.20
67050;DHT22;53955;52.442;13.284;2023-12-28T12:03:31;12.30;64.90
67050;DHT22;53955;52.442;13.284;2023-12-28T12:05:57;12.50;65.40
67050;DHT22;53955;52.442;13.284;2023-12-28T12:08:24;12.60;64.20
67050;DHT22;53955;52.442;13.284;2023-12-28T12:10:59;12.50;65.40
67050;DHT22;53955;52.442;13.284;2023-12-28T12:13:27;12.50;64.40
67050;DHT22;53955;52.442;13.284;2023-12-28T12:15:53;12.60;63.90
67050;DHT22;53955;52.442;13.284;2023-12-28T12:18:21;12.60;64.20
67050;DHT22;53955;52.442;13.284;2023-12-28T12:20:48;12.60;65.30
67050;DHT22;53955;52.442;13.284;2023-12-28T12:23:15;12.60;64.70
67050;DHT22;53955;52.442;13.284;2023-12-28T12:25:42;12.60;64.40
67050;DHT22;53955;52.442;13.284;2023-12-28T12:28:11;12.60;64.20
67050;DHT22;53955;52.442;13.284;2023-12-28T12:30:37;12.70;63.90
67050;DHT22;53955;52.442;13.284;2023-12-28T12:33:04;12.60;66.10
67050;DHT22;53955;52.442;13.284;2023-12-28T12:35:32;12.50;65.30
67050;DHT22;53955;52.442;13.284;2023-12-28T12:37:59;12.60;64.70
67050;DHT22;53955;52.442;13.284;2023-12-28T12:40:26;12.70;65.10
67050;DHT22;53955;52.442;13.284;2023-12-28T12:42:53;12.70;63.60
67050;DHT22;53955;52.442;13.284;2023-12-28T12:45:20;12.70;64.00
67050;DHT22;53955;52.442;13.284;2023-12-28T12:47:47;12.80;62.80
67050;DHT22;53955;52.442;13.284;2023-12-28T12:50:15;12.60;64.20
67050;DHT22;53955;52.442;13.284;2023-12-28T12:52:43;12.70;63.20
67050;DHT22;53955;52.442;13.284;2023-12-28T12:55:10;12.70;63.80
67050;DHT22;53955;52.442;13.284;2023-12-28T12:57:37;12.60;64.90
67050;DHT22;53955;52.442;13.284;2023-12-28T13:00:05;12.70;63.30
67050;DHT22;53955;52.442;13.284;2023-12-28T13:02:34;12.60;64.90
67050;DHT22;53955;52.442;13.284;2023-12-28T13:05:01;12.80;63.60
67050;DHT22;53955;52.442;13.284;2023-12-28T13:07:29;12.60;64.20
67050;DHT22;53955;52.442;13.284;2023-12-28T13:09:57;12.70;65.50
67050;DHT22;53955;52.442;13.284;2023-12-28T13:12:24;12.80;62.90
67050;DHT22;53955;52.442;13.284;2023-12-28T13:14:50;12.70;63.30
67050;DHT22;53955;52.442;13.284;2023-12-28T13:17:17;12.70;64.90
67050;DHT22;53955;52.442;13.284;2023-12-28T13:19:43;12.60;64.60
67050;DHT22;53955;52.442;13.284;2023-12-28T13:22:10;12.50;65.30
67050;DHT22;53955;52.442;13.284;2023-12-28T13:24:37;12.60;65.50
67050;DHT22;53955;52.442;13.284;2023-12-28T13:27:04;12.60;65.00
67050;DHT22;53955;52.442;13.284;2023-12-28T13:29:31;12.60;64.70
67050;DHT22;53955;52.442;13.284;2023-12-28T13:31:58;12.70;64.70
67050;DHT22;53955;52.442;13.284;2023-12-28T13:34:24;12.70;63.40
67050;DHT22;53955;52.442;13.284;2023-12-28T13:36:51;12.70;63.90
67050;DHT22;53955;52.442;13.284;2023-12-28T13:39:18;12.70;63.40
67050;DHT22;53955;52.442;13.284;2023-12-28T13:41:45;12.70;63.00
67050;DHT22;53955;52.442;13.284;2023-12-28T13:44:13;12.70;63.00
67050;DHT22;53955;52.442;13.284;2023-12-28T13:46:40;12.60;63.70
67050;DHT22;53955;52.442;13.284;2023-12-28T13:49:06;12.80;63.00
67050;DHT22;53955;52.442;13.284;2023-12-28T13:51:33;12.70;64.70
67050;DHT22;53955;52.442;13.284;2023-12-28T13:54:00;12.50;64.30
67050;DHT22;53955;52.442;13.284;2023-12-28T13:56:26;12.50;64.20
67050;DHT22;53955;52.442;13.284;2023-12-28T13:58:52;12.60;64.30
67050;DHT22;53955;52.442;13.284;2023-12-28T14:01:20;12.60;64.30
67050;DHT22;53955;52.442;13.284;2023-12-28T14:03:46;12.60;64.30
67050;DHT22;53955;52.442;13.284;2023-12-28T14:06:16;12.60;64.90
67050;DHT22;53955;52.442;13.284;2023-12-28T14:08:43;12.60;64.10
67050;DHT22;53955;52.442;13.284;2023-12-28T14:11:10;12.60;64.50
67050;DHT22;53955;52.442;13.284;2023-12-28T14:13:36;12.60;64.00
67050;DHT22;53955;52.442;13.284;2023-12-28T14:16:03;12.50;64.20
67050;DHT22;53955;52.442;13.284;2023-12-28T14:18:31;12.50;63.90
67050;DHT22;53955;52.442;13.284;2023-12-28T14:20:58;12.50;64.50
67050;DHT22;53955;52.442;13.284;2023-12-28T14:23:25;12.50;64.50
67050;DHT22;53955;52.442;13.284;2023-12-28T14:25:52;12.50;64.90
67050;DHT22;53955;52.442;13.284;2023-12-28T14:28:19;12.50;65.20
67050;DHT22;53955;52.442;13.284;2023-12-28T14:30:46;12.40;65.30
67050;DHT22;53955;52.442;13.284;2023-12-28T14:33:13;12.40;65.30
67050;DHT22;53955;52.442;13.284;2023-12-28T14:35:42;12.50;64.70
67050;DHT22;53955;52.442;13.284;2023-12-28T14:38:08;12.50;65.30
67050;DHT22;53955;52.442;13.284;2023-12-28T14:40:35;12.40;65.90
67050;DHT22;53955;52.442;13.284;2023-12-28T14:43:02;12.40;65.30
67050;DHT22;53955;52.442;13.284;2023-12-28T14:45:28;12.40;64.50
67050;DHT22;53955;52.442;13.284;2023-12-28T14:47:55;12.40;65.50
67050;DHT22;53955;52.442;13.284;2023-12-28T14:50:21;12.30;65.60
67050;DHT22;53955;52.442;13.284;2023-12-28T14:52:49;12.30;65.90
67050;DHT22;53955;52.442;13.284;2023-12-28T14:55:15;12.20;65.60
67050;DHT22;53955;52.442;13.284;2023-12-28T14:57:41;12.10;67.00
67050;DHT22;53955;52.442;13.284;2023-12-28T20:32:35;8.70;81.60
67050;DHT22;53955;52.442;13.284;2023-12-28T20:35:02;9.80;77.10
67050;DHT22;53955;52.442;13.284;2023-12-28T20:37:29;10.00;75.40
67050;DHT22;53955;52.442;13.284;2023-12-28T20:39:55;10.20;74.70
67050;DHT22;53955;52.442;13.284;2023-12-28T20:42:22;10.20;74.10
67050;DHT22;53955;52.442;13.284;2023-12-28T20:44:50;10.30;73.60
67050;DHT22;53955;52.442;13.284;2023-12-28T20:47:17;10.30;73.20
67050;DHT22;53955;52.442;13.284;2023-12-28T20:49:45;10.30;72.30
67050;DHT22;53955;52.442;13.284;2023-12-28T20:52:11;10.40;73.30